Time,TemperatureF,DewpointF,PressureIn,WindDirection,WindDirectionDegrees,WindSpeedMPH,WindSpeedGustMPH,Humidity,HourlyPrecipIn,Conditions,Clouds,dailyrainin,SoftwareType,DateUTC
2013-09-26 00:05:00,32.2,28.5,29.48,NW,315,3.7,-999.0,86,-99.99,,,0.00,Acu-Link.com,2013-09-26 06:05:00,
2013-09-26 00:20:00,31.6,28.5,29.48,NNW,337,2.7,-999.0,88,-99.99,,,0.00,Acu-Link.com,2013-09-26 06:20:00,
2013-09-26 00:35:00,31.8,28.7,29.48,NNW,337,3.7,-999.0,88,-99.99,,,0.00,Acu-Link.com,2013-09-26 06:35:00,
2013-09-26 00:50:00,30.9,28.3,29.48,NNW,337,2.7,-999.0,90,-99.99,,,0.00,Acu-Link.com,2013-09-26 06:50:00,
2013-09-26 01:05:00,30.6,28.0,29.48,NNW,337,2.7,-999.0,90,-99.99,,,0.00,Acu-Link.com,2013-09-26 07:05:00,
2013-09-26 01:20:00,30.9,28.0,29.48,NNW,337,2.2,-999.0,89,-99.99,,,0.00,Acu-Link.com,2013-09-26 07:20:00,
2013-09-26 01:35:00,30.4,27.8,29.50,NNW,337,0.0,-999.0,90,-99.99,,,0.00,Acu-Link.com,2013-09-26 07:35:00,
2013-09-26 01:50:00,29.5,26.9,29.49,NNW,337,0.0,-999.0,90,-99.99,,,0.00,Acu-Link.com,2013-09-26 07:50:00,
2013-09-26 02:06:00,29.1,27.6,29.49,NNW,337,2.2,-999.0,94,-99.99,,,0.00,Acu-Link.com,2013-09-26 08:06:00,
2013-09-26 02:21:00,29.3,27.8,29.49,NNW,337,1.7,-999.0,94,-99.99,,,0.00,Acu-Link.com,2013-09-26 08:21:00,
2013-09-26 02:36:00,30.6,28.0,29.49,West,270,2.7,-999.0,90,-99.99,,,0.00,Acu-Link.com,2013-09-26 08:36:00,
2013-09-26 02:52:00,30.6,28.0,29.49,West,270,2.7,-999.0,90,-99.99,,,0.00,Acu-Link.com,2013-09-26 08:52:00,
2013-09-26 03:07:00,31.3,27.9,29.48,West,270,1.1,-999.0,87,-99.99,,,0.00,Acu-Link.com,2013-09-26 09:07:00,
2013-09-26 03:22:00,32.0,27.7,29.48,West,270,1.7,-999.0,84,-99.99,,,0.00,Acu-Link.com,2013-09-26 09:22:00,
2013-09-26 03:37:00,32.5,27.6,29.48,West,270,2.2,-999.0,82,-99.99,,,0.00,Acu-Link.com,2013-09-26 09:37:00,
2013-09-26 03:52:00,32.7,27.2,29.49,West,270,2.7,-999.0,80,-99.99,,,0.00,Acu-Link.com,2013-09-26 09:52:00,
2013-09-26 04:08:00,32.5,27.3,29.49,West,270,2.7,-999.0,81,-99.99,,,0.00,Acu-Link.com,2013-09-26 10:08:00,
2013-09-26 04:23:00,32.9,27.4,29.49,West,270,3.2,-999.0,80,-99.99,,,0.00,Acu-Link.com,2013-09-26 10:23:00,
2013-09-26 04:38:00,32.9,27.1,29.49,WNW,292,1.1,-999.0,79,-99.99,,,0.00,Acu-Link.com,2013-09-26 10:38:00,
2013-09-26 04:53:00,32.9,27.1,29.49,WNW,292,1.7,-999.0,79,-99.99,,,0.00,Acu-Link.com,2013-09-26 10:53:00,
2013-09-26 05:09:00,32.9,26.8,29.50,West,270,2.7,-999.0,78,-99.99,,,0.00,Acu-Link.com,2013-09-26 11:09:00,
2013-09-26 05:24:00,32.7,26.6,29.51,West,270,1.7,-999.0,78,-99.99,,,0.00,Acu-Link.com,2013-09-26 11:24:00,
2013-09-26 05:39:00,32.9,26.5,29.52,West,270,1.1,-999.0,77,-99.99,,,0.00,Acu-Link.com,2013-09-26 11:39:00,
2013-09-26 05:55:00,32.9,26.5,29.52,West,270,3.7,-999.0,77,-99.99,,,0.00,Acu-Link.com,2013-09-26 11:55:00,
2013-09-26 06:11:00,33.4,26.3,29.52,West,270,1.7,-999.0,75,-99.99,,,0.00,Acu-Link.com,2013-09-26 12:11:00,
2013-09-26 06:26:00,33.8,26.1,29.53,West,270,0.0,-999.0,73,-99.99,,,0.00,Acu-Link.com,2013-09-26 12:26:00,
2013-09-26 06:41:00,34.2,25.8,29.53,NW,315,2.2,-999.0,71,-99.99,,,0.00,Acu-Link.com,2013-09-26 12:41:00,
2013-09-26 06:56:00,34.7,25.2,29.53,WNW,292,1.1,-999.0,68,-99.99,,,0.00,Acu-Link.com,2013-09-26 12:56:00,
2013-09-26 07:11:00,35.2,25.4,29.54,West,270,2.2,-999.0,67,-99.99,,,0.00,Acu-Link.com,2013-09-26 13:11:00,
2013-09-26 07:26:00,35.8,25.2,29.54,West,270,4.2,-999.0,65,-99.99,,,0.00,Acu-Link.com,2013-09-26 13:26:00,
2013-09-26 07:41:00,37.6,25.8,29.55,West,270,5.8,-999.0,62,-99.99,,,0.00,Acu-Link.com,2013-09-26 13:41:00,
2013-09-26 07:56:00,41.4,26.5,29.55,West,270,2.2,-999.0,55,-99.99,,,0.00,Acu-Link.com,2013-09-26 13:56:00,
2013-09-26 08:11:00,41.5,25.7,29.55,West,270,2.2,-999.0,53,-99.99,,,0.00,Acu-Link.com,2013-09-26 14:11:00,
2013-09-26 08:27:00,43.3,25.9,29.55,WSW,247,2.2,-999.0,50,-99.99,,,0.00,Acu-Link.com,2013-09-26 14:27:00,
2013-09-26 08:42:00,44.6,25.6,29.56,West,270,2.2,-999.0,47,-99.99,,,0.00,Acu-Link.com,2013-09-26 14:42:00,
2013-09-26 08:57:00,45.9,26.3,29.56,West,270,2.2,-999.0,46,-99.99,,,0.00,Acu-Link.com,2013-09-26 14:57:00,
2013-09-26 09:12:00,46.9,25.0,29.56,SSW,202,4.2,-999.0,42,-99.99,,,0.00,Acu-Link.com,2013-09-26 15:12:00,
2013-09-26 09:27:00,48.0,24.8,29.57,SW,225,2.7,-999.0,40,-99.99,,,0.00,Acu-Link.com,2013-09-26 15:27:00,
2013-09-26 09:42:00,49.1,24.6,29.57,SSW,202,3.7,-999.0,38,-99.99,,,0.00,Acu-Link.com,2013-09-26 15:42:00,
2013-09-26 09:57:00,50.0,23.4,29.57,SE,135,4.2,-999.0,35,-99.99,,,0.00,Acu-Link.com,2013-09-26 15:57:00,
2013-09-26 10:12:00,51.1,23.7,29.57,SW,225,3.7,-999.0,34,-99.99,,,0.00,Acu-Link.com,2013-09-26 16:12:00,
2013-09-26 10:27:00,52.7,25.1,29.57,WSW,247,4.2,-999.0,34,-99.99,,,0.00,Acu-Link.com,2013-09-26 16:27:00,
2013-09-26 10:43:00,52.7,23.7,29.57,SSW,202,3.7,-999.0,32,-99.99,,,0.00,Acu-Link.com,2013-09-26 16:43:00,
2013-09-26 10:58:00,53.2,23.4,29.57,South,180,2.7,-999.0,31,-99.99,,,0.00,Acu-Link.com,2013-09-26 16:58:00,
2013-09-26 11:13:00,53.4,23.5,29.57,ESE,112,5.8,-999.0,31,-99.99,,,0.00,Acu-Link.com,2013-09-26 17:13:00,
2013-09-26 11:28:00,54.1,23.4,29.58,WSW,247,4.2,-999.0,30,-99.99,,,0.00,Acu-Link.com,2013-09-26 17:28:00,
2013-09-26 11:43:00,54.3,21.9,29.58,SW,225,5.8,-999.0,28,-99.99,,,0.00,Acu-Link.com,2013-09-26 17:43:00,
2013-09-26 11:58:00,55.4,22.9,29.58,WSW,247,6.3,-999.0,28,-99.99,,,0.00,Acu-Link.com,2013-09-26 17:58:00,
2013-09-26 12:13:00,55.4,23.7,29.57,WSW,247,5.3,-999.0,29,-99.99,,,0.00,Acu-Link.com,2013-09-26 18:13:00,
2013-09-26 12:28:00,56.5,23.8,29.57,South,180,3.7,-999.0,28,-99.99,,,0.00,Acu-Link.com,2013-09-26 18:28:00,
2013-09-26 12:43:00,57.9,25.8,29.57,WSW,247,7.8,-999.0,29,-99.99,,,0.00,Acu-Link.com,2013-09-26 18:43:00,
2013-09-26 12:59:00,57.2,23.5,29.56,SSW,202,5.8,-999.0,27,-99.99,,,0.00,Acu-Link.com,2013-09-26 18:59:00,
2013-09-26 13:14:00,57.7,25.7,29.56,SW,225,6.3,-999.0,29,-99.99,,,0.00,Acu-Link.com,2013-09-26 19:14:00,
2013-09-26 13:29:00,58.1,26.8,29.56,South,180,7.8,-999.0,30,-99.99,,,0.00,Acu-Link.com,2013-09-26 19:29:00,
2013-09-26 13:44:00,57.2,25.2,29.55,West,270,6.3,-999.0,29,-99.99,,,0.00,Acu-Link.com,2013-09-26 19:44:00,
2013-09-26 13:59:00,56.3,23.6,29.56,West,270,3.7,-999.0,28,-99.99,,,0.00,Acu-Link.com,2013-09-26 19:59:00,
2013-09-26 14:14:00,60.3,26.2,29.55,SE,135,4.2,-999.0,27,-99.99,,,0.00,Acu-Link.com,2013-09-26 20:14:00,
2013-09-26 14:29:00,57.0,23.4,29.55,SSW,202,4.2,-999.0,27,-99.99,,,0.00,Acu-Link.com,2013-09-26 20:29:00,
2013-09-26 14:44:00,56.8,24.1,29.55,SSW,202,4.7,-999.0,28,-99.99,,,0.00,Acu-Link.com,2013-09-26 20:44:00,
2013-09-26 15:00:00,56.3,23.6,29.55,SW,225,7.3,-999.0,28,-99.99,,,0.00,Acu-Link.com,2013-09-26 21:00:00,
2013-09-26 15:15:00,59.0,25.9,29.54,SW,225,5.3,-999.0,28,-99.99,,,0.00,Acu-Link.com,2013-09-26 21:15:00,
2013-09-26 15:30:00,57.4,24.6,29.54,West,270,7.3,-999.0,28,-99.99,,,0.00,Acu-Link.com,2013-09-26 21:30:00,
2013-09-26 15:45:00,57.0,25.1,29.55,South,180,3.7,-999.0,29,-99.99,,,0.00,Acu-Link.com,2013-09-26 21:45:00,
2013-09-26 16:00:00,56.7,25.6,29.55,West,270,3.2,-999.0,30,-99.99,,,0.00,Acu-Link.com,2013-09-26 22:00:00,
2013-09-26 16:16:00,56.1,27.4,29.55,SW,225,0.0,-999.0,33,-99.99,,,0.00,Acu-Link.com,2013-09-26 22:16:00,
2013-09-26 16:31:00,55.4,28.9,29.54,SW,225,0.0,-999.0,36,-99.99,,,0.00,Acu-Link.com,2013-09-26 22:31:00,
2013-09-26 16:46:00,54.5,27.4,29.54,WSW,247,1.1,-999.0,35,-99.99,,,0.00,Acu-Link.com,2013-09-26 22:46:00,
2013-09-26 17:01:00,53.8,26.8,29.54,WSW,247,2.2,-999.0,35,-99.99,,,0.00,Acu-Link.com,2013-09-26 23:01:00,
2013-09-26 17:16:00,53.4,27.8,29.55,WNW,292,0.0,-999.0,37,-99.99,,,0.00,Acu-Link.com,2013-09-26 23:16:00,
2013-09-26 17:31:00,52.7,27.8,29.55,WNW,292,3.7,-999.0,38,-99.99,,,0.00,Acu-Link.com,2013-09-26 23:31:00,
2013-09-26 17:46:00,51.6,36.0,29.56,NE,45,0.0,-999.0,55,-99.99,,,0.00,Acu-Link.com,2013-09-26 23:46:00,
2013-09-26 18:01:00,50.9,37.1,29.55,ENE,67,2.2,-999.0,59,-99.99,,,0.00,Acu-Link.com,2013-09-27 00:01:00,
2013-09-26 18:16:00,48.7,36.7,29.56,ENE,67,1.7,-999.0,63,-99.99,,,0.00,Acu-Link.com,2013-09-27 00:16:00,
2013-09-26 18:32:00,47.1,35.9,29.56,ENE,67,0.0,-999.0,65,-99.99,,,0.00,Acu-Link.com,2013-09-27 00:32:00,
2013-09-26 18:47:00,45.9,35.6,29.56,ENE,67,2.2,-999.0,67,-99.99,,,0.00,Acu-Link.com,2013-09-27 00:47:00,
2013-09-26 19:02:00,44.4,35.6,29.57,ENE,67,2.2,-999.0,71,-99.99,,,0.00,Acu-Link.com,2013-09-27 01:02:00,
2013-09-26 19:17:00,43.3,35.6,29.57,ENE,67,1.7,-999.0,74,-99.99,,,0.00,Acu-Link.com,2013-09-27 01:17:00,
2013-09-26 19:32:00,42.3,35.6,29.57,ENE,67,0.0,-999.0,77,-99.99,,,0.00,Acu-Link.com,2013-09-27 01:32:00,
2013-09-26 19:47:00,41.7,35.4,29.57,ENE,67,1.7,-999.0,78,-99.99,,,0.00,Acu-Link.com,2013-09-27 01:47:00,
2013-09-26 20:02:00,41.2,35.2,29.57,ENE,67,2.7,-999.0,79,-99.99,,,0.00,Acu-Link.com,2013-09-27 02:02:00,
2013-09-26 20:17:00,41.2,35.2,29.57,ENE,67,2.2,-999.0,79,-99.99,,,0.00,Acu-Link.com,2013-09-27 02:17:00,
2013-09-26 20:32:00,41.0,35.6,29.58,ENE,67,2.7,-999.0,81,-99.99,,,0.00,Acu-Link.com,2013-09-27 02:32:00,
2013-09-26 20:48:00,40.8,36.0,29.58,ENE,67,0.0,-999.0,83,-99.99,,,0.00,Acu-Link.com,2013-09-27 02:48:00,
2013-09-26 21:03:00,40.6,36.5,29.58,ENE,67,2.2,-999.0,85,-99.99,,,0.00,Acu-Link.com,2013-09-27 03:03:00,
2013-09-26 21:18:00,40.6,36.5,29.57,ENE,67,0.0,-999.0,85,-99.99,,,0.00,Acu-Link.com,2013-09-27 03:18:00,
2013-09-26 21:33:00,40.6,36.5,29.57,ENE,67,0.0,-999.0,85,-99.99,,,0.00,Acu-Link.com,2013-09-27 03:33:00,
2013-09-26 21:48:00,40.5,36.4,29.58,ENE,67,0.0,-999.0,85,-99.99,,,0.00,Acu-Link.com,2013-09-27 03:48:00,
2013-09-26 22:03:00,39.9,36.6,29.57,ENE,67,1.7,-999.0,88,-99.99,,,0.00,Acu-Link.com,2013-09-27 04:03:00,
2013-09-26 22:18:00,39.7,36.7,29.57,ENE,67,0.0,-999.0,89,-99.99,,,0.00,Acu-Link.com,2013-09-27 04:18:00,
2013-09-26 22:34:00,39.6,36.9,29.57,ENE,67,0.0,-999.0,90,-99.99,,,0.00,Acu-Link.com,2013-09-27 04:34:00,
2013-09-26 22:49:00,39.4,36.7,29.57,ENE,67,0.0,-999.0,90,-99.99,,,0.00,Acu-Link.com,2013-09-27 04:49:00,
2013-09-26 23:04:00,39.2,36.8,29.57,ENE,67,1.1,-999.0,91,-99.99,,,0.00,Acu-Link.com,2013-09-27 05:04:00,
2013-09-26 23:19:00,38.8,36.4,29.57,ENE,67,0.0,-999.0,91,-99.99,,,0.00,Acu-Link.com,2013-09-27 05:19:00,
2013-09-26 23:34:00,38.7,36.3,29.57,ENE,67,0.0,-999.0,91,-99.99,,,0.00,Acu-Link.com,2013-09-27 05:34:00,
2013-09-26 23:49:00,38.1,36.3,29.58,ENE,67,0.0,-999.0,93,-99.99,,,0.00,Acu-Link.com,2013-09-27 05:49:00,